Latest Coastal Weather Observations for St Helens

IDT60701

Issued at 7:52 pm EST Wednesday 18 May 2022 (issued every 10 minutes, with the page automatically refreshed every 10 minutes)

About coastal observations | Map of coastal stations | Coastal observations for TAS | Marine services | Other Formats
Station Details ID: 092120 Name: ST HELENS AERODROME Lat: -41.34 Lon: 148.28 Height: 48.0 m
Data from the previous 72 hours. | See also: Recent months at St Helens
Date/Time
EST
Wind Sea
Height
m
Swell Vis
km
Cloud Weather Temp
°C
Press
MSL
hPa
Rain since
9am
mm
Dir  Spd
kts
Gust
kts
Height
m
Period
s
Dir
18/07:30pm N 1 5 - - - - 10 Partly cloudy - 10.1 1012.5 0.0
18/07:00pm SW 1 3 - - - - 10 Partly cloudy - 10.7 1012.0 0.0
18/06:30pm SSW 5 7 - - - - 10 Partly cloudy - 10.7 1011.5 0.0
18/06:00pm SE 2 5 - - - - 10 Cloudy - 11.8 1011.0 0.0
18/05:30pm CALM 0 2 - - - - 10 Partly cloudy - 12.1 1010.2 0.0
18/05:00pm SSW 3 9 - - - - 10 Partly cloudy - 12.4 1009.8 0.0
18/04:30pm SW 5 10 - - - - 10 Partly cloudy - 12.9 1009.2 0.0
18/04:00pm SW 5 9 - - - - 10 Partly cloudy - 13.6 1008.6 0.0
18/03:30pm SW 6 12 - - - - 10 - - 14.5 1007.9 0.0
18/03:00pm WSW 7 16 - - - - 10 - - 14.6 1007.4 0.0
18/02:30pm WSW 7 15 - - - - 10 - - 14.8 1006.8 0.0
18/02:00pm WNW 7 13 - - - - 10 - - 14.6 1006.6 0.0
18/01:30pm NW 8 15 - - - - 10 Partly cloudy - 14.0 1006.3 0.0
18/01:00pm NW 8 15 - - - - 10 - - 13.4 1006.4 0.0
18/12:30pm NNW 9 15 - - - - 10 Partly cloudy - 12.9 1006.5 0.0
18/12:00pm NW 10 17 - - - - 10 - - 12.2 1006.7 0.0
18/11:30am W 10 18 - - - - 10 - - 11.9 1006.9 0.0
18/11:00am W 10 18 - - - - 10 - - 11.7 1006.8 0.0
18/10:30am W 9 18 - - - - 10 - - 11.4 1006.8 0.0
18/10:00am WNW 12 23 - - - - 10 - - 11.2 1006.0 0.0
18/09:30am NW 11 19 - - - - 10 - - 11.3 1006.4 0.0
18/09:00am NW 9 14 - - - - 10 - - 10.5 1006.8 0.0
18/08:30am W 6 13 - - - - 10 - - 10.0 1006.8 0.0
18/08:00am WNW 8 15 - - - - 10 - - 9.1 1006.5 0.0
18/07:30am NW 7 11 - - - - 10 - - 8.7 1006.1 0.0
18/07:00am WNW 8 16 - - - - 10 - - 9.0 1006.1 0.0
18/06:30am N 6 9 - - - - 10 - - 9.0 1006.2 0.0
18/06:00am NNW 5 7 - - - - 10 - - 9.1 1006.1 0.0
18/05:30am WNW 7 12 - - - - 10 - - 9.6 1005.6 0.0
18/05:00am W 5 9 - - - - 10 - - 9.3 1005.4 0.0
18/04:30am WNW 10 18 - - - - 10 - - 9.7 1004.4 0.0
18/04:00am W 8 13 - - - - 10 - - 9.9 1005.0 0.0
18/03:30am WNW 9 13 - - - - 10 - - 9.9 1004.8 0.0
18/03:00am WNW 7 12 - - - - 10 - - 10.0 1005.1 0.0
18/02:30am W 7 15 - - - - 10 - - 10.3 1005.3 0.0
18/02:00am WNW 7 11 - - - - 10 - - 10.1 1005.7 0.0
18/01:30am WNW 7 11 - - - - 10 - - 10.3 1006.0 0.0
18/01:00am W 8 14 - - - - 10 - - 10.6 1005.9 0.0
18/12:30am WNW 7 12 - - - - 10 Partly cloudy - 10.5 1006.6 0.0
18/12:00am WNW 8 15 - - - - 10 Cloudy Rain 10.3 1006.6 0.0
 
Date/Time
EST
Wind Sea
Height
m
Swell Vis
km
Cloud Weather Temp
°C
Press
MSL
hPa
Rain since
9am
mm
Dir  Spd
kts
Gust
kts
Height
m
Period
s
Dir
17/11:30pm WNW 8 13 - - - - 10 Partly cloudy - 10.5 1006.9 0.0
17/11:00pm W 9 18 - - - - 10 Partly cloudy - 11.2 1007.3 0.0
17/10:30pm W 10 21 - - - - 10 - - 11.7 1007.0 0.0
17/10:00pm W 10 17 - - - - 10 - - 11.7 1006.8 0.0
17/09:30pm WSW 5 9 - - - - 10 - - 11.3 1007.1 0.0
17/09:00pm WNW 7 15 - - - - 10 Cloudy - 11.6 1007.1 0.0
17/08:30pm NNW 8 13 - - - - 10 Partly cloudy - 11.3 1007.4 0.0
17/08:00pm WNW 8 15 - - - - 10 Partly cloudy - 12.0 1008.0 0.0
17/07:30pm WNW 8 14 - - - - 10 Partly cloudy - 12.6 1007.9 0.0
17/07:00pm WNW 11 20 - - - - 10 Partly cloudy - 12.7 1007.6 0.0
17/06:30pm WNW 12 21 - - - - 10 Partly cloudy - 12.6 1007.6 0.0
17/06:00pm W 9 14 - - - - 10 Cloudy - 12.5 1007.6 0.0
17/05:30pm W 9 19 - - - - 10 Partly cloudy - 12.6 1007.4 0.0
17/05:00pm WNW 8 15 - - - - 10 Partly cloudy - 12.8 1007.8 0.0
17/04:30pm WNW 10 18 - - - - 10 Partly cloudy - 13.1 1007.7 0.0
17/04:00pm WNW 11 19 - - - - 10 Partly cloudy - 13.3 1007.8 0.0
17/03:30pm W 11 21 - - - - 10 - - 14.2 1007.6 0.0
17/03:00pm W 11 17 - - - - 10 - - 14.5 1007.4 0.0
17/02:30pm WNW 13 21 - - - - 10 - - 14.5 1007.3 0.0
17/02:00pm WNW 11 19 - - - - 10 - - 14.7 1007.0 0.0
17/01:30pm W 10 19 - - - - 10 - - 14.7 1007.1 0.0
17/01:00pm W 10 19 - - - - 10 - - 14.8 1007.3 0.0
17/12:30pm W 8 15 - - - - 10 - - 14.6 1007.5 0.0
17/12:00pm W 9 19 - - - - 10 - - 14.5 1008.0 0.0
17/11:30am WNW 9 17 - - - - 10 Partly cloudy - 14.2 1008.4 0.0
17/11:00am W 7 14 - - - - 10 - - 13.9 1008.6 0.0
17/10:30am WNW 8 15 - - - - 10 Partly cloudy - 13.5 1008.8 0.0
17/10:00am WNW 9 14 - - - - 10 - - 12.9 1008.9 0.0
17/09:30am NW 8 18 - - - - 10 - - 12.6 1008.9 0.0
17/09:00am WNW 9 19 - - - - 10 - - 11.9 1009.0 0.0
17/08:30am WNW 9 13 - - - - 10 - - 11.1 1008.7 0.0
17/08:00am NW 9 14 - - - - 10 - - 10.6 1008.6 0.0
17/07:30am NW 10 15 - - - - 10 - - 10.2 1008.6 0.0
17/07:00am WNW 10 16 - - - - 10 - - 10.0 1008.5 0.0
17/06:30am WNW 9 14 - - - - 10 - - 9.8 1008.4 0.0
17/06:00am NW 10 16 - - - - 10 - - 9.8 1007.9 0.0
17/05:30am WNW 10 16 - - - - 10 - - 10.0 1007.7 0.0
17/05:00am WNW 8 15 - - - - 10 - - 9.9 1007.7 0.0
17/04:30am W 6 12 - - - - 10 - - 9.6 1007.6 0.0
17/04:00am SW 4 8 - - - - 10 - - 8.7 1007.6 0.0
17/03:30am WSW 5 11 - - - - 10 - - 8.9 1007.8 0.0
17/03:00am WSW 3 7 - - - - 10 - - 8.3 1007.7 0.0
17/02:30am NW 9 16 - - - - 10 - - 9.5 1007.6 0.0
17/02:00am WNW 10 18 - - - - 10 - - 9.9 1007.7 0.0
17/01:30am WNW 9 15 - - - - 10 - - 10.0 1007.5 0.0
17/01:00am WNW 8 13 - - - - 10 - - 9.9 1007.5 0.0
17/12:30am W 8 17 - - - - 10 - - 10.1 1007.4 0.0
17/12:00am WSW 6 13 - - - - 10 - - 9.5 1007.6 0.0
 
Date/Time
EST
Wind Sea
Height
m
Swell Vis
km
Cloud Weather Temp
°C
Press
MSL
hPa
Rain since
9am
mm
Dir  Spd
kts
Gust
kts
Height
m
Period
s
Dir
16/11:30pm NW 8 14 - - - - 10 Partly cloudy - 10.2 1007.7 0.0
16/11:00pm WNW 8 14 - - - - 10 Partly cloudy - 10.0 1007.8 0.0
16/10:30pm NW 10 17 - - - - 10 - - 9.9 1007.4 0.0
16/10:00pm WNW 9 13 - - - - 10 - - 9.3 1007.1 0.0
16/09:30pm NW 10 14 - - - - 10 - - 9.6 1006.6 0.0
16/09:00pm NW 8 12 - - - - 10 Mostly cloudy - 10.0 1006.6 0.0
16/08:30pm WNW 10 16 - - - - 10 Partly cloudy - 10.4 1006.8 0.0
16/08:00pm WNW 11 16 - - - - 10 - - 10.5 1006.6 0.0
16/07:30pm WNW 10 21 - - - - 10 Partly cloudy - 10.9 1006.6 0.0
16/07:00pm NW 8 11 - - - - 10 - - 10.0 1006.7 0.0
16/06:30pm WNW 7 11 - - - - 10 - - 10.1 1006.2 0.0
16/06:00pm W 8 13 - - - - 10 - - 10.6 1005.7 0.0
16/05:30pm W 9 17 - - - - 10 - - 10.8 1005.4 0.0
16/05:00pm W 7 11 - - - - 10 Partly cloudy - 10.6 1005.2 0.0
16/04:30pm W 8 15 - - - - 10 Partly cloudy - 11.7 1005.5 0.0
16/04:00pm WNW 11 18 - - - - 10 - - 12.6 1004.5 0.0
16/03:30pm W 10 23 - - - - 10 - - 12.9 1004.5 0.0
16/03:00pm W 11 24 - - - - 10 - - 13.7 1004.0 0.0
16/02:30pm WNW 11 20 - - - - 10 - - 13.9 1004.0 0.0
16/02:00pm W 11 23 - - - - 10 - - 13.9 1004.0 0.0
16/01:30pm WNW 10 20 - - - - 10 - - 13.5 1004.1 0.0
16/01:00pm W 14 27 - - - - 10 Partly cloudy - 14.0 1004.2 0.0
16/12:30pm W 13 25 - - - - 10 - - 14.1 1004.3 0.0
16/12:00pm W 11 21 - - - - 10 - - 14.0 1004.4 0.0
16/11:30am W 12 23 - - - - 10 - - 14.0 1004.4 0.0
16/11:00am W 10 19 - - - - 10 - - 13.7 1004.4 0.0
16/10:30am WNW 9 15 - - - - 10 - - 13.2 1004.7 0.0
16/10:00am WNW 13 24 - - - - 10 Partly cloudy - 13.1 1004.6 0.0
16/09:30am WNW 9 21 - - - - 10 Partly cloudy - 12.8 1004.6 0.0
16/09:00am WNW 11 19 - - - - 10 - - 12.5 1004.6 4.8
16/08:30am NW 8 15 - - - - 10 - - 11.6 1004.2 4.8
16/08:00am NW 7 11 - - - - 10 - - 10.9 1004.3 4.8
16/07:30am W 7 16 - - - - 10 Partly cloudy - 10.8 1004.5 4.8
16/07:00am WNW 10 15 - - - - 10 Partly cloudy - 11.5 1003.8 4.6
16/06:30am WNW 10 16 - - - - 10 Partly cloudy - 11.3 1003.3 4.6
16/06:00am NW 10 17 - - - - 10 Mostly clear - 11.2 1003.1 4.6
16/05:30am NW 9 14 - - - - 10 - - 11.6 1002.8 4.6
16/05:00am NW 12 21 - - - - 10 - - 12.0 1002.6 4.6
16/04:30am WNW 10 20 - - - - 10 - - 12.2 1002.2 4.6
16/04:00am WNW 11 19 - - - - 10 - - 12.4 1001.6 4.6
16/03:30am WNW 10 17 - - - - 10 - - 12.4 1001.4 4.6
16/03:00am WNW 13 23 - - - - 10 - - 12.4 1001.3 4.6
16/02:30am W 11 24 - - - - 10 - - 12.5 1000.9 4.6
16/02:15am W 15 26 - - - - 10 - - 12.8 1000.8 4.6
16/02:00am W 13 24 - - - - 10 - - 12.9 1000.8 4.6
16/01:30am WNW 15 31 - - - - 10 - - 13.2 1000.3 4.6
16/01:00am WNW 15 25 - - - - 10 Partly cloudy - 13.1 1000.2 4.6
16/12:30am NW 10 14 - - - - 10 Partly cloudy - 12.5 1000.2 4.6
16/12:00am WNW 12 21 - - - - 10 Cloudy - 13.1 1000.1 4.6
 
Date/Time
EST
Wind Sea
Height
m
Swell Vis
km
Cloud Weather Temp
°C
Press
MSL
hPa
Rain since
9am
mm
Dir  Spd
kts
Gust
kts
Height
m
Period
s
Dir
15/11:39pm WNW 15 25 - - - - 10 Partly cloudy - 13.7 1000.2 4.6
15/11:30pm WNW 12 23 - - - - 10 Partly cloudy - 13.4 1000.1 4.4
15/11:00pm NNW 10 16 - - - - 10 Partly cloudy - 13.4 999.7 4.2
15/10:30pm NNW 7 11 - - - - 10 Partly cloudy - 13.2 1000.5 3.6
15/10:00pm WNW 7 11 - - - - 7 Partly cloudy - 13.0 1001.1 3.2
15/09:30pm WNW 9 14 - - - - 10 Partly cloudy - 13.2 1000.9 2.2
15/09:00pm WNW 10 19 - - - - 6 Cloudy - 13.6 1001.7 1.8
15/08:30pm NW 12 20 - - - - 10 Partly cloudy - 14.3 1001.7 1.2
15/08:00pm NW 8 13 - - - - 10 Partly cloudy - 13.9 1002.1 1.2

Other formats

Comma delimited format used in spreadsheet applications
http://www.bom.gov.au/fwo/IDT60701/IDT60701.95981.axf

JavaScript Object Notation format (JSON) in row-major order
http://www.bom.gov.au/fwo/IDT60701/IDT60701.95981.json

Data quality

Most of these data are generated automatically and are frequently updated. Quality checks on data are not normally performed. It is possible for incorrect values to appear. Refer to information at About Latest Weather Observations and please check the disclaimer before using these data.